Etusivu
METAR-TAF:

METAR-TAF

Lentoasemat :

El Palomar, Argentiina

Leveyspiiri: 34-36S, Pituuspiiri: 058-36W, korkeus merenpinnasta: 18 m

Tämänhetkinen sää

Tämä raportti tehtiin 3 tuntia ja 35 minuuttia sitten, kello 00.42 UTC
Tuuli 15 kn lännestä/lounaasta puuskistuen 25 kn:hen
Lämpötila 9°C
Kosteus 71%
Ilmanpaine 1016 hPa
Näkyvyys 10 km tai enemmän
ei pilviä alle 1500 m:ssä eikä cumulonimbus-pilviä

METAR: SADP 310042Z 24015G25KT CAVOK 09/04 Q1016

Aika: 01:17 (04:17 UTC)


TAF: puuttuu

Säähavainnot ja -ennusteet yli 4000 lentoasemalta (METAR- ja TAF-raportit).

Käytössä olevat sääasemat on merkitty karttaan keltaisilla ja punaisilla pisteillä.

Aseta hiiri pisteen päälle nähdäksesi sääaseman nimen.

Klikkaa sitten nähdäksesi säähavainnot ja -ennusteet.

Kartan vaihtaminen: klikkaa mustalla rastilla varustettuja vihreitä pisteitä, niin voit zoomata sisään; viivalla varustettua vihreää pistettä, niin voit zoomata ulos tai vihreitä nuolia, niin pääset viereisille kartoille.


METAR-TAF: